Time;durP1;ratioP1;P1;durP2;ratioP2;P2;SDS_P1;SDS_P2;PMS_P1;PMS_P2;Temp;Humidity;BMP_temperature;BMP_pressure;BME280_temperature;BME280_humidity;BME280_pressure;Samples;Min_cycle;Max_cycle;Signal;HPM_P1;HPM_P2
2024/03/23 00:01:36;;;;;;;2.47;1.00;;;;;;;8.83;83.84;100453.34;15299845;28;20118;-47
2024/03/23 00:09:12;;;;;;;0.00;0.00;;;;;;;8.92;82.98;100445.94;15295811;28;20054;-46
2024/03/23 00:16:52;;;;;;;0.00;0.00;;;;;;;8.82;83.44;100437.50;15295749;28;20052;-49
2024/03/23 00:24:28;;;;;;;0.00;0.00;;;;;;;8.47;84.02;100435.00;15283004;28;20044;-50
2024/03/23 00:32:05;;;;;;;0.17;0.15;;;;;;;8.32;84.73;100424.44;15295515;28;20408;-50
2024/03/23 00:39:42;;;;;;;0.00;0.00;;;;;;;8.51;83.50;100387.25;15293998;28;20067;-47
2024/03/23 00:47:18;;;;;;;0.00;0.00;;;;;;;8.87;82.59;100381.50;15286992;28;20066;-45
2024/03/23 00:54:55;;;;;;;0.10;0.10;;;;;;;9.32;81.56;100371.69;15294652;28;20412;-46
2024/03/23 01:02:30;;;;;;;0.65;0.38;;;;;;;8.96;81.67;100356.16;15296528;28;20086;-46
2024/03/23 01:10:06;;;;;;;0.35;0.32;;;;;;;8.57;82.70;100362.34;15296479;28;20044;-46
2024/03/23 01:17:48;;;;;;;0.00;0.00;;;;;;;8.84;82.45;100334.56;15295136;28;20107;-47
2024/03/23 01:25:23;;;;;;;3.65;0.63;;;;;;;8.85;81.81;100308.59;15291686;28;20115;-51
2024/03/23 01:32:57;;;;;;;0.00;0.00;;;;;;;9.42;79.73;100301.63;15275651;29;20048;-49
2024/03/23 01:40:32;;;;;;;0.00;0.00;;;;;;;9.52;79.30;100293.13;15294456;28;20100;-50
2024/03/23 01:48:07;;;;;;;0.80;0.43;;;;;;;9.33;80.44;100305.59;15302308;28;20139;-49
2024/03/23 01:55:42;;;;;;;0.00;0.00;;;;;;;9.05;81.49;100301.38;15300136;28;20065;-47
2024/03/23 02:03:26;;;;;;;0.40;0.40;;;;;;;9.16;81.47;100295.34;15303394;28;20078;-47
2024/03/23 02:11:01;;;;;;;0.05;0.05;;;;;;;9.18;81.30;100292.44;15300878;28;20101;-47
2024/03/23 02:18:36;;;;;;;0.00;0.00;;;;;;;9.17;80.60;100275.56;15304283;28;20055;-48
2024/03/23 02:26:11;;;;;;;1.38;1.10;;;;;;;9.12;80.93;100267.34;15303403;28;20413;-45
2024/03/23 02:33:46;;;;;;;0.00;0.00;;;;;;;8.93;80.80;100253.00;15298105;28;20055;-50
2024/03/23 02:41:22;;;;;;;;;;;;;;;8.91;82.02;100246.22;15296432;28;20040;-50
2024/03/23 02:48:57;;;;;;;0.00;0.00;;;;;;;8.64;82.97;100230.25;15295864;28;19923;-46
2024/03/23 02:56:33;;;;;;;0.85;0.55;;;;;;;8.39;82.92;100229.25;15299555;28;20039;-49
2024/03/23 03:04:07;;;;;;;0.50;0.45;;;;;;;8.44;84.54;100229.47;15300482;28;20040;-43
2024/03/23 03:11:44;;;;;;;2.13;0.90;;;;;;;8.71;83.61;100210.66;15301706;28;20063;-49
2024/03/23 03:19:17;;;;;;;1.25;1.08;;;;;;;9.10;81.39;100202.50;15291464;28;20466;-45
2024/03/23 03:26:52;;;;;;;0.00;0.00;;;;;;;8.71;82.51;100194.63;15299820;28;20083;-51
2024/03/23 03:34:30;;;;;;;0.00;0.00;;;;;;;8.60;83.43;100190.75;15295417;28;20349;-46
2024/03/23 03:42:06;;;;;;;0.00;0.00;;;;;;;8.00;85.79;100179.31;15296261;28;20048;-51
2024/03/23 03:49:41;;;;;;;0.10;0.10;;;;;;;8.23;84.77;100178.88;15297226;28;20096;-45
2024/03/23 03:57:21;;;;;;;0.00;0.00;;;;;;;8.78;82.17;100168.66;15296822;28;20167;-52
2024/03/23 04:04:56;;;;;;;0.00;0.00;;;;;;;8.48;81.84;100168.34;15296053;28;20044;-52
2024/03/23 04:12:33;;;;;;;0.00;0.00;;;;;;;8.28;83.49;100166.53;15295478;28;20312;-47
2024/03/23 04:20:16;;;;;;;0.00;0.00;;;;;;;6.64;82.81;99990.16;15289073;29;20086;-59
2024/03/23 04:27:53;;;;;;;0.00;0.00;;;;;;;7.90;81.82;100155.69;15238997;28;20067;-48
2024/03/23 04:35:27;;;;;;;0.28;0.28;;;;;;;7.87;81.79;100154.25;15251209;28;20040;-48
2024/03/23 04:43:04;;;;;;;0.00;0.00;;;;;;;7.81;81.60;100138.22;15305168;28;20044;-47
2024/03/23 04:50:38;;;;;;;0.00;0.00;;;;;;;7.60;82.25;100128.56;15323930;28;20135;-47
2024/03/23 04:58:15;;;;;;;0.73;0.57;;;;;;;7.51;83.80;100130.63;15304611;28;20040;-48
2024/03/23 05:05:49;;;;;;;0.00;0.00;;;;;;;7.50;82.26;100122.81;15241853;28;20047;-48
2024/03/23 05:13:24;;;;;;;0.00;0.00;;;;;;;7.80;81.67;100113.38;15240627;28;20151;-49
2024/03/23 05:20:59;;;;;;;2.72;1.77;;;;;;;7.61;80.53;100099.00;15240781;28;20051;-48
2024/03/23 05:28:35;;;;;;;0.00;0.00;;;;;;;7.41;81.74;100093.66;15236880;28;20497;-49
2024/03/23 05:36:11;;;;;;;0.00;0.00;;;;;;;7.75;80.57;100061.59;15262089;28;20131;-49
2024/03/23 05:43:46;;;;;;;0.00;0.00;;;;;;;7.93;80.55;100065.25;15300237;28;20134;-52
2024/03/23 05:51:21;;;;;;;0.03;0.03;;;;;;;8.04;79.75;100044.25;15238845;28;20115;-48
2024/03/23 05:58:56;;;;;;;0.00;0.00;;;;;;;8.00;80.60;100033.16;15239894;28;20052;-50
2024/03/23 06:06:31;;;;;;;0.00;0.00;;;;;;;7.24;82.65;100004.34;15236867;28;20481;-50
2024/03/23 06:14:06;;;;;;;0.00;0.00;;;;;;;7.49;82.47;100001.00;15246551;28;20456;-52
2024/03/23 06:21:44;;;;;;;0.00;0.00;;;;;;;7.86;81.80;100010.19;15272792;28;20047;-54
2024/03/23 06:29:19;;;;;;;0.00;0.00;;;;;;;7.66;81.81;99988.88;15250013;28;20055;-52
2024/03/23 06:36:57;;;;;;;0.00;0.00;;;;;;;7.54;81.67;99985.19;15336513;28;20052;-50
2024/03/23 06:44:33;;;;;;;0.00;0.00;;;;;;;7.53;82.75;99984.38;15250239;28;20048;-49
2024/03/23 06:52:06;;;;;;;0.00;0.00;;;;;;;7.51;83.39;99970.41;15251350;28;20122;-50
2024/03/23 06:59:41;;;;;;;0.15;0.15;;;;;;;7.75;82.29;99978.78;15245076;28;20513;-49
2024/03/23 07:07:15;;;;;;;0.10;0.10;;;;;;;7.79;81.43;99970.13;15245920;28;20110;-52
2024/03/23 07:14:50;;;;;;;0.00;0.00;;;;;;;7.66;80.53;99973.66;15248715;28;20048;-48
2024/03/23 07:22:25;;;;;;;0.15;0.15;;;;;;;7.84;80.77;99962.31;15245490;28;20101;-50
2024/03/23 07:30:00;;;;;;;0.30;0.30;;;;;;;8.16;80.52;99963.19;15246774;28;20497;-49
2024/03/23 07:37:35;;;;;;;0.00;0.00;;;;;;;8.25;80.33;99968.25;15309541;28;20064;-50
2024/03/23 07:45:11;;;;;;;0.00;0.00;;;;;;;8.41;79.39;99963.28;15248972;28;20470;-53
2024/03/23 07:52:45;;;;;;;0.00;0.00;;;;;;;7.86;80.24;99954.06;15244651;28;20467;-49
2024/03/23 08:00:21;;;;;;;0.40;0.40;;;;;;;7.80;80.39;99952.25;15245774;28;20036;-49
2024/03/23 08:07:55;;;;;;;0.00;0.00;;;;;;;7.46;81.97;99938.19;15247746;28;20054;-51
2024/03/23 08:15:32;;;;;;;0.73;0.45;;;;;;;6.70;82.52;99929.84;15239407;28;20048;-52
2024/03/23 08:23:07;;;;;;;0.00;0.00;;;;;;;6.57;83.79;99926.13;15310197;28;20131;-51
2024/03/23 08:30:42;;;;;;;0.00;0.00;;;;;;;6.80;81.69;99932.91;15246515;28;20051;-49
2024/03/23 08:38:16;;;;;;;0.00;0.00;;;;;;;6.17;83.01;99935.94;15267684;28;20106;-49
2024/03/23 08:45:51;;;;;;;0.00;0.00;;;;;;;5.86;83.08;99934.56;15246910;28;20474;-50
2024/03/23 08:53:25;;;;;;;0.30;0.30;;;;;;;5.83;82.97;99937.63;15243366;28;20036;-51
2024/03/23 09:01:06;;;;;;;0.00;0.00;;;;;;;5.86;83.09;99944.38;15244155;28;20119;-52
2024/03/23 09:08:40;;;;;;;0.00;0.00;;;;;;;5.52;82.97;99953.25;15327310;28;20073;-48
2024/03/23 09:16:18;;;;;;;0.00;0.00;;;;;;;5.26;83.75;99945.91;15308902;28;20080;-50
2024/03/23 09:23:51;;;;;;;0.00;0.00;;;;;;;5.75;81.42;99964.44;15290604;28;20044;-51
2024/03/23 09:31:27;;;;;;;0.00;0.00;;;;;;;5.37;82.04;99977.31;15280254;28;20054;-49
2024/03/23 09:39:03;;;;;;;0.00;0.00;;;;;;;5.51;81.27;99984.38;15330499;28;20516;-49
2024/03/23 09:46:40;;;;;;;0.00;0.00;;;;;;;5.60;82.03;99985.84;15244473;28;20079;-50
2024/03/23 09:54:14;;;;;;;0.00;0.00;;;;;;;5.32;81.91;100022.34;15243598;28;20045;-48
2024/03/23 10:01:50;;;;;;;0.00;0.00;;;;;;;5.25;84.11;100042.72;15252836;28;20040;-52
2024/03/23 10:09:27;;;;;;;0.00;0.00;;;;;;;5.63;81.80;100043.19;15253000;28;20069;-50
2024/03/23 10:17:14;;;;;;;3.40;1.27;;;;;;;5.22;82.38;100049.28;15252741;28;20473;-50
2024/03/23 10:24:49;;;;;;;0.00;0.00;;;;;;;5.63;80.87;100061.84;15253926;28;20535;-51
2024/03/23 10:32:27;;;;;;;0.22;0.20;;;;;;;5.18;83.19;100068.47;15251814;28;20098;-54
2024/03/23 10:40:00;;;;;;;0.03;0.03;;;;;;;5.54;82.16;100076.31;15273833;28;20052;-50
2024/03/23 10:47:38;;;;;;;0.00;0.00;;;;;;;4.92;80.48;100077.84;15252319;28;20063;-50
2024/03/23 10:55:11;;;;;;;0.00;0.00;;;;;;;5.56;82.01;100085.75;15314566;28;20036;-52
2024/03/23 11:02:48;;;;;;;0.00;0.00;;;;;;;5.46;81.06;100079.97;15250574;28;20048;-51
2024/03/23 11:10:30;;;;;;;0.00;0.00;;;;;;;6.00;79.04;100063.31;15249304;28;20044;-50
2024/03/23 11:18:08;;;;;;;0.00;0.00;;;;;;;6.19;77.75;100072.44;15249511;28;20055;-50
2024/03/23 11:25:45;;;;;;;0.00;0.00;;;;;;;6.56;77.76;100076.47;15249033;28;20048;-51
2024/03/23 11:33:20;;;;;;;0.47;0.47;;;;;;;6.64;76.38;100086.97;15313453;28;20510;-50
2024/03/23 11:40:54;;;;;;;0.00;0.00;;;;;;;6.66;78.49;100105.41;15313043;28;20040;-51
2024/03/23 11:48:29;;;;;;;0.00;0.00;;;;;;;5.72;81.89;100115.75;15250866;28;20155;-49
2024/03/23 11:56:03;;;;;;;0.00;0.00;;;;;;;6.41;80.38;100098.97;15248100;28;20059;-52
2024/03/23 12:03:38;;;;;;;0.00;0.00;;;;;;;6.75;79.40;100104.22;15289287;28;20102;-50
2024/03/23 12:11:14;;;;;;;0.00;0.00;;;;;;;6.01;82.79;100075.63;15247632;28;20098;-49
2024/03/23 12:18:50;;;;;;;0.00;0.00;;;;;;;6.84;80.25;100084.34;15246731;28;20444;-49
2024/03/23 12:26:24;;;;;;;0.00;0.00;;;;;;;6.93;78.94;100097.50;15322461;28;20512;-48
2024/03/23 12:33:59;;;;;;;0.15;0.13;;;;;;;6.55;80.49;100093.50;15333236;28;20104;-48
2024/03/23 12:41:33;;;;;;;0.00;0.00;;;;;;;7.06;78.68;100081.53;15284949;28;20127;-49
2024/03/23 12:49:09;;;;;;;0.00;0.00;;;;;;;6.55;80.43;100077.50;15247362;28;20434;-49
2024/03/23 12:56:42;;;;;;;0.00;0.00;;;;;;;7.16;78.65;100061.41;15242963;28;20126;-51
2024/03/23 13:04:17;;;;;;;0.00;0.00;;;;;;;7.20;78.38;100069.81;15244153;28;20131;-50
2024/03/23 13:11:51;;;;;;;0.00;0.00;;;;;;;10.50;67.92;100062.72;15239806;28;20099;-50
2024/03/23 13:19:27;;;;;;;0.00;0.00;;;;;;;10.42;63.76;100053.09;15306848;28;20570;-52
2024/03/23 13:27:00;;;;;;;0.00;0.00;;;;;;;10.68;64.23;100053.81;15242721;28;20049;-49
2024/03/23 13:34:36;;;;;;;0.00;0.00;;;;;;;10.41;64.83;100051.47;15265218;28;20106;-49
2024/03/23 13:42:12;;;;;;;0.00;0.00;;;;;;;10.33;65.25;100059.81;15242296;28;20076;-49
2024/03/23 13:49:48;;;;;;;0.20;0.20;;;;;;;10.45;65.06;100051.84;15236584;28;20060;-49
2024/03/23 13:57:23;;;;;;;0.00;0.00;;;;;;;9.77;66.11;100054.66;15318925;28;20409;-50
2024/03/23 14:04:58;;;;;;;0.00;0.00;;;;;;;9.71;69.08;100062.53;15239345;28;20049;-49
2024/03/23 14:12:31;;;;;;;1.77;1.60;;;;;;;9.95;68.97;100060.84;15233432;28;20452;-50
2024/03/23 14:20:11;;;;;;;0.00;0.00;;;;;;;9.71;66.71;100065.22;15236926;28;20567;-51
2024/03/23 14:27:45;;;;;;;0.00;0.00;;;;;;;9.54;64.38;100058.78;15232313;28;20571;-53
2024/03/23 14:35:20;;;;;;;0.00;0.00;;;;;;;9.06;65.81;100058.56;15326329;28;20042;-49
2024/03/23 14:42:54;;;;;;;0.00;0.00;;;;;;;7.14;70.28;100094.69;15239979;28;20131;-50
2024/03/23 14:50:30;;;;;;;0.00;0.00;;;;;;;6.68;73.68;100100.72;15247392;28;20058;-49
2024/03/23 14:58:05;;;;;;;0.08;0.08;;;;;;;6.17;76.46;100085.13;15246837;28;20052;-50
2024/03/23 15:05:40;;;;;;;0.00;0.00;;;;;;;7.03;73.78;100080.06;15246004;28;20040;-48
2024/03/23 15:13:16;;;;;;;0.00;0.00;;;;;;;7.49;70.45;100075.78;15245501;28;20516;-50
2024/03/23 15:20:54;;;;;;;0.00;0.00;;;;;;;7.17;68.98;100072.91;15245344;28;20051;-51
2024/03/23 15:28:37;;;;;;;0.20;0.20;;;;;;;7.48;69.23;100076.81;15309824;28;20501;-50
2024/03/23 15:36:13;;;;;;;;;;;;;;;7.27;70.94;100051.13;15267389;28;20040;-49
2024/03/23 15:43:46;;;;;;;0.00;0.00;;;;;;;6.90;73.63;100056.88;15234554;28;19931;-51
2024/03/23 15:51:21;;;;;;;0.00;0.00;;;;;;;7.49;71.32;100057.09;15301159;28;20052;-50
2024/03/23 15:58:55;;;;;;;0.00;0.00;;;;;;;6.88;72.10;100048.25;15309014;28;20048;-51
2024/03/23 16:06:31;;;;;;;0.00;0.00;;;;;;;7.65;70.55;100036.13;15309021;28;20130;-50
2024/03/23 16:14:04;;;;;;;1.10;0.63;;;;;;;7.22;69.47;100029.56;15272168;28;20469;-49
2024/03/23 16:21:40;;;;;;;0.00;0.00;;;;;;;7.28;68.07;100031.44;15309230;28;20099;-51
2024/03/23 16:29:15;;;;;;;0.00;0.00;;;;;;;7.01;68.35;100036.78;15242319;28;20083;-51
2024/03/23 16:36:51;;;;;;;0.00;0.00;;;;;;;6.67;69.37;100024.41;15331155;28;20052;-51
2024/03/23 16:44:25;;;;;;;0.00;0.00;;;;;;;6.71;70.10;100033.63;15242486;28;20048;-48
2024/03/23 16:52:00;;;;;;;0.00;0.00;;;;;;;6.68;70.52;100026.06;15306760;28;20044;-46
2024/03/23 16:59:34;;;;;;;0.00;0.00;;;;;;;6.63;70.68;100032.00;15306794;28;20153;-47
2024/03/23 17:07:11;;;;;;;0.00;0.00;;;;;;;6.87;69.57;100024.44;15304289;28;20138;-47
2024/03/23 17:14:45;;;;;;;0.00;0.00;;;;;;;6.41;71.58;100016.34;15305808;28;20098;-46
2024/03/23 17:22:20;;;;;;;0.00;0.00;;;;;;;6.38;72.41;100031.69;15320711;28;20433;-47
2024/03/23 17:29:55;;;;;;;0.00;0.00;;;;;;;6.06;73.98;100049.22;15240814;28;20052;-52
2024/03/23 17:37:29;;;;;;;;;;;;;;;6.15;72.99;100057.84;15264112;28;20126;-51
2024/03/23 17:45:04;;;;;;;0.00;0.00;;;;;;;5.88;75.08;100067.53;15239654;28;20042;-53
2024/03/23 17:52:43;;;;;;;0.00;0.00;;;;;;;6.06;73.75;100073.22;15319213;28;20036;-45
2024/03/23 18:00:18;;;;;;;0.65;0.20;;;;;;;5.96;73.90;100082.56;15302895;28;20138;-46
2024/03/23 18:07:53;;;;;;;0.00;0.00;;;;;;;5.17;77.04;100093.41;15303908;28;20490;-53
2024/03/23 18:15:27;;;;;;;0.00;0.00;;;;;;;5.42;76.25;100091.19;15318371;28;20029;-47
2024/03/23 18:23:04;;;;;;;0.00;0.00;;;;;;;5.22;76.47;100122.91;15310915;28;20048;-59
2024/03/23 18:30:38;;;;;;;0.00;0.00;;;;;;;5.41;76.86;100134.75;15328508;28;20040;-47
2024/03/23 18:38:13;;;;;;;0.00;0.00;;;;;;;5.27;75.69;100147.09;15257360;28;20052;-45
2024/03/23 18:45:47;;;;;;;0.00;0.00;;;;;;;5.55;74.30;100148.00;15247708;28;20169;-50
2024/03/23 18:53:22;;;;;;;0.00;0.00;;;;;;;5.53;73.93;100154.53;15247778;28;20509;-47
2024/03/23 19:00:57;;;;;;;0.00;0.00;;;;;;;5.33;75.33;100149.03;15246750;28;20048;-46
2024/03/23 19:08:33;;;;;;;0.00;0.00;;;;;;;5.21;75.99;100143.38;15245212;28;20103;-55
2024/03/23 19:16:08;;;;;;;0.00;0.00;;;;;;;5.26;75.43;100142.81;15246590;28;20048;-48
2024/03/23 19:23:43;;;;;;;0.00;0.00;;;;;;;5.39;74.93;100142.94;15245908;29;20772;-49
2024/03/23 19:31:17;;;;;;;0.00;0.00;;;;;;;5.51;74.47;100149.41;15243870;28;20075;-48
2024/03/23 19:38:52;;;;;;;0.00;0.00;;;;;;;5.83;74.05;100139.22;15335106;28;20516;-49
2024/03/23 19:46:27;;;;;;;0.00;0.00;;;;;;;5.72;73.30;100148.53;15244543;28;20055;-46
2024/03/23 19:54:02;;;;;;;0.00;0.00;;;;;;;5.92;73.05;100139.91;15244093;28;20485;-49
2024/03/23 20:01:36;;;;;;;0.15;0.15;;;;;;;5.87;72.15;100135.13;15308308;28;20032;-48
2024/03/23 20:09:11;;;;;;;0.10;0.10;;;;;;;5.87;72.40;100127.13;15307453;28;20531;-47
2024/03/23 20:16:46;;;;;;;1.10;0.35;;;;;;;5.92;71.48;100118.59;15244511;28;20413;-49
2024/03/23 20:24:21;;;;;;;0.88;0.82;;;;;;;5.74;71.92;100124.41;15247063;28;20044;-56
2024/03/23 20:31:55;;;;;;;0.00;0.00;;;;;;;5.27;73.40;100131.16;15309660;28;20110;-50
2024/03/23 20:39:30;;;;;;;0.00;0.00;;;;;;;4.77;74.90;100130.25;15268353;28;20421;-50
2024/03/23 20:47:07;;;;;;;0.20;0.20;;;;;;;4.31;76.98;100119.88;15241761;28;20400;-49
2024/03/23 20:54:45;;;;;;;0.25;0.25;;;;;;;4.30;77.70;100126.19;15241203;28;20487;-48
2024/03/23 21:02:19;;;;;;;0.05;0.05;;;;;;;4.93;75.55;100118.53;15241024;28;20052;-54
2024/03/23 21:09:55;;;;;;;0.08;0.08;;;;;;;4.10;78.17;100120.59;15240886;28;20519;-48
2024/03/23 21:17:29;;;;;;;0.10;0.10;;;;;;;4.43;77.11;100125.53;15240044;29;20119;-52
2024/03/23 21:25:06;;;;;;;0.00;0.00;;;;;;;3.97;78.42;100115.94;15240748;28;20114;-52
2024/03/23 21:32:40;;;;;;;0.10;0.10;;;;;;;4.47;76.64;100113.53;15233284;28;20074;-48
2024/03/23 21:40:16;;;;;;;0.00;0.00;;;;;;;4.34;76.30;100112.38;15302436;28;20378;-51
2024/03/23 21:47:51;;;;;;;0.70;0.47;;;;;;;3.87;78.53;100104.78;15239534;28;20045;-47
2024/03/23 21:55:26;;;;;;;0.00;0.00;;;;;;;3.96;78.37;100090.38;15308441;28;20180;-49
2024/03/23 22:03:00;;;;;;;0.10;0.10;;;;;;;3.60;78.24;100087.63;15315359;28;20049;-51
2024/03/23 22:10:35;;;;;;;0.00;0.00;;;;;;;3.69;78.92;100078.59;15314699;28;20059;-48
2024/03/23 22:18:09;;;;;;;0.00;0.00;;;;;;;3.81;78.29;100069.16;15248167;28;20044;-52
2024/03/23 22:25:50;;;;;;;0.00;0.00;;;;;;;3.53;78.80;100068.13;15247813;28;20072;-51
2024/03/23 22:33:24;;;;;;;0.00;0.00;;;;;;;3.43;79.30;100062.25;15247201;28;20464;-51
2024/03/23 22:41:02;;;;;;;1.48;0.55;;;;;;;3.51;79.24;100051.56;15265637;28;20079;-51
2024/03/23 22:48:41;;;;;;;0.00;0.00;;;;;;;3.19;80.18;100060.66;15308204;28;20492;-49
2024/03/23 22:56:17;;;;;;;0.00;0.00;;;;;;;3.15;80.97;100060.19;15245734;28;20048;-49
2024/03/23 23:03:51;;;;;;;0.00;0.00;;;;;;;2.92;80.91;100052.25;15247598;28;20408;-50
2024/03/23 23:11:27;;;;;;;0.03;0.03;;;;;;;3.12;80.73;100054.41;15244962;28;20040;-54
2024/03/23 23:19:05;;;;;;;0.00;0.00;;;;;;;3.26;80.33;100049.16;15245075;28;20056;-51
2024/03/23 23:26:42;;;;;;;0.20;0.20;;;;;;;3.30;80.78;100046.94;15285600;28;20040;-51
2024/03/23 23:34:16;;;;;;;0.00;0.00;;;;;;;3.38;81.14;100028.31;15334116;28;20450;-52
2024/03/23 23:41:51;;;;;;;0.10;0.10;;;;;;;3.48;80.12;100022.75;15309606;28;20131;-51
2024/03/23 23:49:25;;;;;;;0.10;0.10;;;;;;;3.82;79.00;100027.50;15243101;28;20052;-50
2024/03/23 23:57:01;;;;;;;0.00;0.00;;;;;;;3.98;78.10;100024.66;15243439;28;20072;-51
